Time;durP1;ratioP1;P1;durP2;ratioP2;P2;SDS_P1;SDS_P2;PMS_P1;PMS_P2;Temp;Humidity;BMP_temperature;BMP_pressure;BME280_temperature;BME280_humidity;BME280_pressure;Samples;Min_cycle;Max_cycle;Signal;HPM_P1;HPM_P2
2022/12/10 00:01:24;;;;;;;50.05;21.52;;;;;;;;;;5070299;28;20091;-78
2022/12/10 00:03:54;;;;;;;50.95;21.40;;;;;;;;;;5051161;28;20049;-78
2022/12/10 00:06:22;;;;;;;52.15;20.42;;;;;;;;;;5073858;28;20088;-78
2022/12/10 00:08:50;;;;;;;59.85;21.23;;;;;;;;;;5052517;28;20044;-78
2022/12/10 00:11:18;;;;;;;49.67;20.42;;;;;;;;;;5069943;28;20057;-78
2022/12/10 00:13:46;;;;;;;61.08;24.55;;;;;;;;;;5074366;28;20095;-78
2022/12/10 00:16:14;;;;;;;52.78;21.80;;;;;;;;;;5079553;28;20055;-78
2022/12/10 00:18:42;;;;;;;55.42;21.23;;;;;;;;;;5069393;28;20136;-78
2022/12/10 00:21:11;;;;;;;52.88;22.02;;;;;;;;;;5070268;28;20049;-78
2022/12/10 00:23:38;;;;;;;58.85;22.20;;;;;;;;;;5072824;28;20083;-78
2022/12/10 00:26:06;;;;;;;58.38;22.58;;;;;;;;;;5078806;28;20925;-77
2022/12/10 00:28:34;;;;;;;52.63;22.95;;;;;;;;;;5069353;28;20079;-78
2022/12/10 00:31:12;;;;;;;52.97;21.77;;;;;;;;;;5069961;28;20049;-77
2022/12/10 00:33:40;;;;;;;55.58;22.08;;;;;;;;;;5072476;28;20060;-77
2022/12/10 00:36:09;;;;;;;61.67;22.45;;;;;;;;;;5075288;28;20139;-79
2022/12/10 00:38:36;;;;;;;62.33;22.70;;;;;;;;;;5057098;28;20038;-78
2022/12/10 00:41:04;;;;;;;60.80;23.15;;;;;;;;;;5078204;28;20055;-77
2022/12/10 00:43:31;;;;;;;64.15;23.48;;;;;;;;;;5072415;28;20053;-77
2022/12/10 00:45:59;;;;;;;77.80;25.90;;;;;;;;;;5079915;28;20068;-78
2022/12/10 00:48:26;;;;;;;65.70;23.42;;;;;;;;;;5076841;28;20057;-77
2022/12/10 00:51:01;;;;;;;57.72;23.13;;;;;;;;;;5073822;28;20057;-78
2022/12/10 00:53:29;;;;;;;60.72;23.88;;;;;;;;;;5077164;28;20048;-78
2022/12/10 00:55:57;;;;;;;59.72;22.45;;;;;;;;;;5070157;28;20048;-78
2022/12/10 00:58:27;;;;;;;64.10;24.20;;;;;;;;;;5076468;28;20060;-78
2022/12/10 01:00:55;;;;;;;61.97;23.63;;;;;;;;;;5070425;28;20088;-78
2022/12/10 01:03:23;;;;;;;70.05;22.42;;;;;;;;;;5077360;28;20045;-78
2022/12/10 01:05:50;;;;;;;65.32;24.98;;;;;;;;;;5054208;28;20183;-78
2022/12/10 01:08:21;;;;;;;58.75;23.90;;;;;;;;;;5079090;28;20462;-78
2022/12/10 01:10:53;;;;;;;65.55;24.88;;;;;;;;;;5077181;28;20044;-78
2022/12/10 01:13:20;;;;;;;65.28;25.13;;;;;;;;;;5071030;28;20045;-78
2022/12/10 01:15:48;;;;;;;64.93;24.75;;;;;;;;;;5070189;28;20127;-78
2022/12/10 01:18:16;;;;;;;62.47;24.52;;;;;;;;;;5074178;28;20056;-78
2022/12/10 01:20:43;;;;;;;67.38;26.48;;;;;;;;;;5074701;28;20735;-78
2022/12/10 01:23:10;;;;;;;69.22;24.88;;;;;;;;;;5072396;28;20136;-78
2022/12/10 01:25:37;;;;;;;60.70;23.30;;;;;;;;;;5074102;28;20415;-78
2022/12/10 01:28:04;;;;;;;70.13;25.92;;;;;;;;;;5074028;28;20055;-78
2022/12/10 01:30:32;;;;;;;62.10;23.92;;;;;;;;;;5072223;28;20053;-78
2022/12/10 01:33:00;;;;;;;65.13;25.90;;;;;;;;;;5073235;28;20168;-78
2022/12/10 01:35:27;;;;;;;69.05;24.73;;;;;;;;;;5073478;28;20056;-78
2022/12/10 01:37:54;;;;;;;59.88;23.90;;;;;;;;;;5073570;28;20053;-78
2022/12/10 01:40:25;;;;;;;66.55;24.30;;;;;;;;;;5083172;28;20053;-78
2022/12/10 01:42:52;;;;;;;64.47;23.42;;;;;;;;;;5078013;28;20053;-78
2022/12/10 01:45:24;;;;;;;62.85;22.85;;;;;;;;;;5070973;28;20132;-78
2022/12/10 01:47:54;;;;;;;54.50;23.83;;;;;;;;;;5070893;28;20052;-77
2022/12/10 01:50:25;;;;;;;67.10;22.55;;;;;;;;;;5086872;28;20277;-79
2022/12/10 01:52:52;;;;;;;57.00;22.90;;;;;;;;;;5081973;28;20049;-78
2022/12/10 01:55:58;;;;;;;67.82;24.17;;;;;;;;;;5056907;28;20053;-78
2022/12/10 01:58:26;;;;;;;51.83;21.92;;;;;;;;;;5005844;28;20050;-77
2022/12/10 02:00:53;;;;;;;63.03;23.33;;;;;;;;;;4993691;28;20137;-78
2022/12/10 02:03:26;;;;;;;72.80;25.27;;;;;;;;;;5002450;28;20105;-78
2022/12/10 02:06:01;;;;;;;60.10;23.25;;;;;;;;;;5002219;28;20066;-79
2022/12/10 02:08:33;;;;;;;60.15;22.55;;;;;;;;;;4997438;28;21021;-78
2022/12/10 02:11:13;;;;;;;69.88;24.80;;;;;;;;;;4994861;28;20057;-78
2022/12/10 02:14:07;;;;;;;67.57;24.95;;;;;;;;;;5005466;28;20054;-78
2022/12/10 02:16:37;;;;;;;73.22;25.17;;;;;;;;;;4989666;28;20050;-78
2022/12/10 02:19:11;;;;;;;62.88;23.83;;;;;;;;;;4982543;28;20046;-78
2022/12/10 02:21:40;;;;;;;66.05;23.08;;;;;;;;;;4990655;28;21108;-77
2022/12/10 02:24:11;;;;;;;65.85;23.33;;;;;;;;;;4985121;28;20050;-78
2022/12/10 02:26:45;;;;;;;64.05;23.65;;;;;;;;;;5002728;28;20223;-78
2022/12/10 02:29:16;;;;;;;82.30;23.40;;;;;;;;;;5016820;28;20061;-78
2022/12/10 02:31:53;;;;;;;80.35;23.73;;;;;;;;;;5052711;28;20151;-77
2022/12/10 02:34:24;;;;;;;65.65;23.73;;;;;;;;;;5046442;28;20057;-77
2022/12/10 02:36:55;;;;;;;92.88;25.83;;;;;;;;;;5054290;28;20065;-77
2022/12/10 02:39:27;;;;;;;77.70;23.10;;;;;;;;;;5060830;28;20130;-78
2022/12/10 02:41:55;;;;;;;68.78;23.58;;;;;;;;;;5061217;28;20096;-78
2022/12/10 02:44:24;;;;;;;78.43;22.30;;;;;;;;;;5055013;28;20126;-78
2022/12/10 02:46:57;;;;;;;76.25;23.20;;;;;;;;;;5055394;28;20112;-78
2022/12/10 02:49:24;;;;;;;93.28;25.58;;;;;;;;;;5055356;28;20815;-78
2022/12/10 02:51:53;;;;;;;82.80;23.45;;;;;;;;;;5055370;28;20054;-77
2022/12/10 02:54:37;;;;;;;93.18;25.20;;;;;;;;;;5053464;28;20060;-78
2022/12/10 02:57:11;;;;;;;96.72;25.52;;;;;;;;;;5053767;28;20103;-79
2022/12/10 02:59:46;;;;;;;76.13;23.75;;;;;;;;;;5055505;28;20128;-78
2022/12/10 03:02:14;;;;;;;91.25;24.95;;;;;;;;;;5049076;28;20049;-77
2022/12/10 03:04:59;;;;;;;147.10;25.98;;;;;;;;;;5053489;28;20057;-78
2022/12/10 03:07:31;;;;;;;82.43;24.88;;;;;;;;;;5054922;28;20053;-77
2022/12/10 03:10:04;;;;;;;141.77;26.40;;;;;;;;;;5060846;28;20089;-78
2022/12/10 03:12:40;;;;;;;104.85;24.33;;;;;;;;;;5055596;28;20132;-78
2022/12/10 03:15:09;;;;;;;103.95;23.55;;;;;;;;;;5052924;28;20059;-78
2022/12/10 03:17:38;;;;;;;72.22;23.88;;;;;;;;;;5052587;28;20038;-78
2022/12/10 03:20:08;;;;;;;87.90;22.92;;;;;;;;;;5068860;28;20137;-78
2022/12/10 03:22:39;;;;;;;101.63;23.65;;;;;;;;;;5057363;28;20061;-78
2022/12/10 03:25:08;;;;;;;109.93;22.42;;;;;;;;;;5068927;28;20055;-79
2022/12/10 03:27:37;;;;;;;127.10;23.70;;;;;;;;;;5066040;28;20115;-78
2022/12/10 03:30:04;;;;;;;103.05;24.35;;;;;;;;;;5055843;28;20150;-79
2022/12/10 03:32:32;;;;;;;97.05;23.20;;;;;;;;;;5070829;28;20060;-78
2022/12/10 03:35:00;;;;;;;84.05;22.52;;;;;;;;;;5075111;28;20495;-78
2022/12/10 03:37:28;;;;;;;97.57;23.73;;;;;;;;;;5071009;28;20973;-78
2022/12/10 03:39:57;;;;;;;132.57;23.63;;;;;;;;;;5072720;28;20053;-78
2022/12/10 03:42:24;;;;;;;129.70;23.52;;;;;;;;;;5082853;28;20135;-78
2022/12/10 03:44:55;;;;;;;166.32;23.63;;;;;;;;;;5085869;28;20048;-79
2022/12/10 03:47:23;;;;;;;111.35;21.17;;;;;;;;;;5070646;28;20048;-78
2022/12/10 03:49:50;;;;;;;112.28;21.52;;;;;;;;;;5081313;28;20053;-79
2022/12/10 03:52:20;;;;;;;117.63;23.15;;;;;;;;;;5081730;28;20055;-79
2022/12/10 03:54:47;;;;;;;128.90;23.10;;;;;;;;;;5076088;28;20192;-79
2022/12/10 03:57:14;;;;;;;99.10;20.95;;;;;;;;;;5075222;28;20045;-78
2022/12/10 03:59:42;;;;;;;73.30;20.73;;;;;;;;;;5073629;28;20045;-78
2022/12/10 04:02:10;;;;;;;109.13;22.60;;;;;;;;;;5079892;28;20049;-79
2022/12/10 04:04:37;;;;;;;102.30;22.80;;;;;;;;;;5079441;28;20505;-79
2022/12/10 04:07:05;;;;;;;170.85;24.77;;;;;;;;;;5077530;28;20130;-78
2022/12/10 04:09:32;;;;;;;74.15;21.20;;;;;;;;;;5073934;28;20049;-78
2022/12/10 04:12:00;;;;;;;203.40;25.65;;;;;;;;;;5084422;28;20057;-79
2022/12/10 04:17:14;;;;;;;90.68;20.48;;;;;;;;;;5082634;28;20059;-78
2022/12/10 04:19:42;;;;;;;119.68;23.25;;;;;;;;;;5085647;28;20049;-79
2022/12/10 04:27:41;;;;;;;62.00;19.63;;;;;;;;;;5077684;28;20766;-78
2022/12/10 04:30:10;;;;;;;114.07;20.48;;;;;;;;;;5073863;28;20049;-79
2022/12/10 04:32:38;;;;;;;166.23;21.65;;;;;;;;;;5062624;28;20048;-78
2022/12/10 04:35:05;;;;;;;97.15;22.05;;;;;;;;;;5084806;28;20052;-78
2022/12/10 04:37:33;;;;;;;137.80;22.63;;;;;;;;;;5074484;28;20053;-78
2022/12/10 04:40:00;;;;;;;131.75;22.55;;;;;;;;;;5073770;28;20049;-78
2022/12/10 04:42:27;;;;;;;123.03;23.08;;;;;;;;;;5078437;28;20052;-79
2022/12/10 04:44:55;;;;;;;91.93;21.75;;;;;;;;;;5085342;28;20044;-79
2022/12/10 04:47:22;;;;;;;75.65;21.60;;;;;;;;;;5085168;28;20061;-78
2022/12/10 04:49:49;;;;;;;146.73;23.58;;;;;;;;;;5074869;28;20045;-78
2022/12/10 04:52:21;;;;;;;85.43;22.38;;;;;;;;;;5082720;28;20049;-78
2022/12/10 04:54:53;;;;;;;70.00;21.63;;;;;;;;;;5078417;28;20106;-78
2022/12/10 04:57:21;;;;;;;116.50;24.23;;;;;;;;;;5076387;28;20059;-79
2022/12/10 04:59:49;;;;;;;187.07;23.33;;;;;;;;;;5077551;28;20118;-78
2022/12/10 05:02:19;;;;;;;98.60;21.25;;;;;;;;;;5079547;28;20741;-78
2022/12/10 05:04:48;;;;;;;124.32;23.52;;;;;;;;;;5076481;28;20076;-79
2022/12/10 05:07:15;;;;;;;91.13;21.95;;;;;;;;;;5080957;28;20049;-79
2022/12/10 05:09:43;;;;;;;107.25;21.63;;;;;;;;;;5070540;28;20540;-78
2022/12/10 05:12:10;;;;;;;90.03;22.33;;;;;;;;;;5073875;28;20049;-78
2022/12/10 05:14:37;;;;;;;126.35;23.50;;;;;;;;;;5081763;28;20056;-78
2022/12/10 05:17:04;;;;;;;93.10;23.13;;;;;;;;;;5077289;28;20052;-78
2022/12/10 05:19:31;;;;;;;99.50;24.25;;;;;;;;;;5056313;28;21026;-79
2022/12/10 05:24:46;;;;;;;103.72;23.25;;;;;;;;;;5072716;28;20056;-78
2022/12/10 05:27:14;;;;;;;98.50;22.75;;;;;;;;;;5068154;28;20041;-78
2022/12/10 05:29:41;;;;;;;95.63;23.83;;;;;;;;;;5075029;28;20053;-78
2022/12/10 05:32:08;;;;;;;87.38;22.92;;;;;;;;;;5076834;28;20060;-78
2022/12/10 05:34:35;;;;;;;134.00;24.30;;;;;;;;;;5077135;28;20051;-78
2022/12/10 05:37:03;;;;;;;72.50;22.05;;;;;;;;;;5074112;28;20045;-79
2022/12/10 05:39:30;;;;;;;78.45;22.52;;;;;;;;;;5074156;28;20115;-78
2022/12/10 05:41:58;;;;;;;126.30;23.13;;;;;;;;;;5073912;28;20140;-80
2022/12/10 05:44:25;;;;;;;106.22;23.48;;;;;;;;;;5075723;28;20089;-79
2022/12/10 05:46:55;;;;;;;98.28;22.20;;;;;;;;;;5057687;28;20057;-79
2022/12/10 05:49:23;;;;;;;81.90;20.25;;;;;;;;;;5070099;28;20045;-78
2022/12/10 05:51:51;;;;;;;77.47;21.63;;;;;;;;;;5056410;28;20060;-78
2022/12/10 05:54:21;;;;;;;82.57;22.33;;;;;;;;;;5080213;28;20085;-78
2022/12/10 05:56:50;;;;;;;69.60;19.63;;;;;;;;;;5073608;28;20940;-79
2022/12/10 05:59:18;;;;;;;91.63;22.33;;;;;;;;;;5072201;28;20041;-78
2022/12/10 06:01:45;;;;;;;175.40;23.38;;;;;;;;;;5079151;28;20056;-78
2022/12/10 06:04:13;;;;;;;68.07;20.50;;;;;;;;;;5082371;28;20112;-78
2022/12/10 06:06:41;;;;;;;96.97;21.63;;;;;;;;;;5070386;28;20053;-78
2022/12/10 06:09:11;;;;;;;78.55;21.10;;;;;;;;;;5076931;28;20032;-79
2022/12/10 06:11:38;;;;;;;83.05;22.00;;;;;;;;;;5077723;28;20080;-79
2022/12/10 06:14:06;;;;;;;76.78;21.67;;;;;;;;;;5074338;28;20056;-79
2022/12/10 06:16:33;;;;;;;69.40;22.50;;;;;;;;;;5079107;28;20474;-79
2022/12/10 06:19:00;;;;;;;115.03;23.00;;;;;;;;;;5074628;28;20052;-78
2022/12/10 06:21:29;;;;;;;63.00;21.35;;;;;;;;;;5056443;28;20109;-78
2022/12/10 06:23:56;;;;;;;68.35;20.42;;;;;;;;;;5077432;28;20045;-78
2022/12/10 06:26:25;;;;;;;88.00;19.92;;;;;;;;;;5081256;28;20057;-79
2022/12/10 06:28:55;;;;;;;83.22;19.33;;;;;;;;;;5078031;28;20519;-78
2022/12/10 06:31:22;;;;;;;79.22;20.58;;;;;;;;;;5071358;28;20115;-78
2022/12/10 06:33:54;;;;;;;108.40;21.73;;;;;;;;;;5079857;28;20128;-78
2022/12/10 06:36:25;;;;;;;68.55;22.10;;;;;;;;;;5058040;28;20053;-78
2022/12/10 06:38:54;;;;;;;61.78;20.83;;;;;;;;;;5074554;28;20136;-78
2022/12/10 06:41:21;;;;;;;74.35;21.40;;;;;;;;;;5071715;28;20060;-78
2022/12/10 06:43:49;;;;;;;86.22;22.58;;;;;;;;;;5072894;28;20056;-78
2022/12/10 06:46:18;;;;;;;74.78;21.65;;;;;;;;;;5074131;28;20052;-79
2022/12/10 06:48:45;;;;;;;87.20;22.45;;;;;;;;;;5084510;28;21508;-78
2022/12/10 06:51:13;;;;;;;60.42;20.30;;;;;;;;;;5063097;28;20049;-79
2022/12/10 06:53:41;;;;;;;66.43;21.25;;;;;;;;;;5058295;28;20059;-78
2022/12/10 06:56:12;;;;;;;94.55;22.02;;;;;;;;;;5057854;28;20495;-78
2022/12/10 06:58:41;;;;;;;79.95;22.10;;;;;;;;;;5075615;28;20946;-78
2022/12/10 07:01:10;;;;;;;74.72;19.98;;;;;;;;;;5075922;28;20064;-78
2022/12/10 07:03:38;;;;;;;81.40;20.73;;;;;;;;;;5073575;28;20049;-79
2022/12/10 07:06:06;;;;;;;79.32;20.67;;;;;;;;;;5072986;28;20052;-78
2022/12/10 07:08:33;;;;;;;65.72;20.45;;;;;;;;;;5078978;28;20063;-78
2022/12/10 07:11:04;;;;;;;92.95;21.63;;;;;;;;;;5074897;28;20049;-78
2022/12/10 07:13:31;;;;;;;66.43;20.77;;;;;;;;;;5074372;28;20057;-78
2022/12/10 07:15:58;;;;;;;91.47;21.10;;;;;;;;;;5071536;28;20053;-78
2022/12/10 07:18:27;;;;;;;75.22;21.20;;;;;;;;;;5076786;28;20103;-78
2022/12/10 07:20:55;;;;;;;80.15;22.38;;;;;;;;;;5053626;28;20800;-78
2022/12/10 07:23:22;;;;;;;61.58;19.98;;;;;;;;;;5065544;28;20498;-79
2022/12/10 07:25:50;;;;;;;68.50;18.92;;;;;;;;;;5078972;28;20486;-78
2022/12/10 07:28:20;;;;;;;73.93;18.60;;;;;;;;;;5073263;28;20085;-78
2022/12/10 07:30:53;;;;;;;53.67;17.38;;;;;;;;;;5074008;28;20057;-78
2022/12/10 07:33:24;;;;;;;70.53;16.70;;;;;;;;;;5071961;28;21577;-78
2022/12/10 07:35:54;;;;;;;60.17;19.45;;;;;;;;;;5072644;28;20056;-78
2022/12/10 07:38:21;;;;;;;55.08;18.95;;;;;;;;;;5071824;28;20057;-78
2022/12/10 07:40:50;;;;;;;70.30;20.50;;;;;;;;;;5070498;28;20144;-78
2022/12/10 07:43:19;;;;;;;57.67;19.30;;;;;;;;;;5074925;28;20057;-80
2022/12/10 07:45:46;;;;;;;58.60;17.35;;;;;;;;;;5060735;28;20054;-78
2022/12/10 07:48:14;;;;;;;77.28;21.63;;;;;;;;;;5070711;28;20052;-78
2022/12/10 07:50:42;;;;;;;62.38;19.38;;;;;;;;;;5069541;28;20148;-78
2022/12/10 07:53:09;;;;;;;84.35;21.83;;;;;;;;;;5069386;28;20151;-79
2022/12/10 07:55:37;;;;;;;64.05;19.25;;;;;;;;;;5047330;28;20140;-78
2022/12/10 07:58:04;;;;;;;56.53;19.08;;;;;;;;;;5071272;28;20136;-78
2022/12/10 08:00:32;;;;;;;74.28;20.50;;;;;;;;;;5068742;28;20908;-79
2022/12/10 08:02:59;;;;;;;56.60;17.75;;;;;;;;;;5072186;28;20450;-78
2022/12/10 08:05:26;;;;;;;110.88;20.35;;;;;;;;;;5072428;28;20041;-79
2022/12/10 08:07:53;;;;;;;49.22;18.38;;;;;;;;;;5075757;28;20060;-78
2022/12/10 08:10:29;;;;;;;54.92;18.83;;;;;;;;;;5070923;28;20053;-78
2022/12/10 08:12:56;;;;;;;76.25;18.60;;;;;;;;;;5050281;28;20049;-79
2022/12/10 08:15:23;;;;;;;72.35;19.02;;;;;;;;;;5072257;28;20055;-78
2022/12/10 08:17:53;;;;;;;57.15;17.92;;;;;;;;;;5071210;28;20049;-79
2022/12/10 08:20:20;;;;;;;80.18;19.83;;;;;;;;;;5068332;28;20499;-78
2022/12/10 08:22:48;;;;;;;77.72;19.30;;;;;;;;;;5074894;28;20045;-79
2022/12/10 08:25:15;;;;;;;76.30;19.90;;;;;;;;;;5052422;28;20059;-78
2022/12/10 08:27:42;;;;;;;61.78;19.20;;;;;;;;;;5073017;28;20048;-78
2022/12/10 08:30:10;;;;;;;60.05;19.20;;;;;;;;;;5074118;28;20542;-79
2022/12/10 08:32:37;;;;;;;60.97;18.40;;;;;;;;;;5079748;28;20144;-79
2022/12/10 08:35:05;;;;;;;64.07;18.88;;;;;;;;;;5081180;28;20045;-79
2022/12/10 08:37:33;;;;;;;59.17;17.50;;;;;;;;;;5071941;28;20049;-79
2022/12/10 08:40:00;;;;;;;55.38;15.80;;;;;;;;;;5074622;28;20069;-78
2022/12/10 08:42:29;;;;;;;77.68;18.10;;;;;;;;;;5076224;28;20072;-78
2022/12/10 08:44:56;;;;;;;50.03;16.23;;;;;;;;;;5075024;28;20053;-78
2022/12/10 08:47:26;;;;;;;55.58;16.75;;;;;;;;;;5078555;28;20092;-79
2022/12/10 08:49:57;;;;;;;44.00;14.60;;;;;;;;;;5059375;28;20112;-78
2022/12/10 08:52:24;;;;;;;57.83;17.27;;;;;;;;;;5067310;28;20119;-78
2022/12/10 08:55:02;;;;;;;52.72;17.02;;;;;;;;;;5050115;28;20049;-78
2022/12/10 08:57:31;;;;;;;53.10;15.70;;;;;;;;;;5049579;28;20056;-78
2022/12/10 08:59:59;;;;;;;50.72;15.65;;;;;;;;;;5070639;28;20057;-78
2022/12/10 09:02:26;;;;;;;45.83;16.60;;;;;;;;;;5060113;28;20103;-78
2022/12/10 09:04:53;;;;;;;43.22;15.10;;;;;;;;;;5058024;28;20957;-78
2022/12/10 09:07:21;;;;;;;47.40;15.43;;;;;;;;;;5077936;28;20203;-78
2022/12/10 09:09:49;;;;;;;60.30;18.48;;;;;;;;;;5073387;28;20147;-78
2022/12/10 09:12:16;;;;;;;53.63;17.23;;;;;;;;;;5071445;28;20041;-78
2022/12/10 09:14:43;;;;;;;62.05;17.10;;;;;;;;;;5082703;28;20944;-78
2022/12/10 09:17:11;;;;;;;57.90;17.10;;;;;;;;;;5077517;28;20076;-78
2022/12/10 09:19:45;;;;;;;75.15;18.48;;;;;;;;;;5069132;28;20077;-78
2022/12/10 09:22:13;;;;;;;93.10;19.63;;;;;;;;;;5078848;28;20113;-78
2022/12/10 09:24:40;;;;;;;63.55;18.30;;;;;;;;;;5080509;28;20057;-78
2022/12/10 09:27:08;;;;;;;57.22;16.70;;;;;;;;;;5077857;28;20053;-79
2022/12/10 09:29:35;;;;;;;58.63;16.55;;;;;;;;;;5081053;28;20048;-78
2022/12/10 09:32:02;;;;;;;73.70;17.90;;;;;;;;;;5081648;28;20115;-78
2022/12/10 09:34:30;;;;;;;70.55;18.52;;;;;;;;;;5073294;28;20084;-79
2022/12/10 09:36:57;;;;;;;59.47;18.13;;;;;;;;;;5063611;28;20151;-79
2022/12/10 09:39:25;;;;;;;64.25;18.13;;;;;;;;;;5070439;28;20076;-78
2022/12/10 09:41:57;;;;;;;67.82;18.95;;;;;;;;;;5069927;28;20060;-79
2022/12/10 09:44:49;;;;;;;75.80;18.20;;;;;;;;;;5081897;28;20101;-79
2022/12/10 09:47:17;;;;;;;60.10;17.35;;;;;;;;;;5080257;28;20529;-79
2022/12/10 09:49:53;;;;;;;78.28;18.60;;;;;;;;;;5079228;28;20570;-79
2022/12/10 09:52:23;;;;;;;62.42;15.68;;;;;;;;;;5082357;28;20140;-78
2022/12/10 09:54:55;;;;;;;56.83;17.23;;;;;;;;;;5076424;28;20060;-79
2022/12/10 09:57:30;;;;;;;56.40;15.98;;;;;;;;;;5056352;28;20584;-78
2022/12/10 10:00:01;;;;;;;48.08;16.23;;;;;;;;;;5079002;28;20060;-79
2022/12/10 10:02:31;;;;;;;49.88;15.65;;;;;;;;;;5067188;28;20525;-78
2022/12/10 10:05:11;;;;;;;57.13;16.48;;;;;;;;;;5052377;28;20046;-78
2022/12/10 10:07:42;;;;;;;53.40;16.83;;;;;;;;;;5074880;28;20107;-79
2022/12/10 10:10:30;;;;;;;52.05;16.48;;;;;;;;;;5078312;28;20056;-79
2022/12/10 10:13:13;;;;;;;52.50;16.58;;;;;;;;;;5075874;28;20573;-79
2022/12/10 10:15:41;;;;;;;51.10;15.77;;;;;;;;;;5076884;28;20762;-79
2022/12/10 10:18:14;;;;;;;56.25;17.10;;;;;;;;;;5080219;28;20105;-80
2022/12/10 10:20:42;;;;;;;48.30;15.90;;;;;;;;;;5079746;28;20068;-79
2022/12/10 10:23:13;;;;;;;81.47;18.50;;;;;;;;;;5080109;28;20057;-78
2022/12/10 10:25:40;;;;;;;61.92;16.92;;;;;;;;;;5076610;28;20057;-79
2022/12/10 10:28:12;;;;;;;75.60;19.15;;;;;;;;;;5086507;28;20093;-78
2022/12/10 10:30:42;;;;;;;80.53;17.30;;;;;;;;;;5080081;28;20071;-78
2022/12/10 10:33:11;;;;;;;87.85;18.63;;;;;;;;;;5076744;28;20057;-79
2022/12/10 10:35:44;;;;;;;48.10;16.48;;;;;;;;;;5081990;28;20052;-78
2022/12/10 10:38:23;;;;;;;66.47;16.33;;;;;;;;;;5075944;28;20039;-78
2022/12/10 10:40:56;;;;;;;57.05;16.35;;;;;;;;;;5070393;28;20053;-78
2022/12/10 10:43:27;;;;;;;62.67;16.98;;;;;;;;;;5078251;28;20049;-78
2022/12/10 10:46:07;;;;;;;53.28;16.63;;;;;;;;;;5054634;28;20883;-78
2022/12/10 10:48:34;;;;;;;57.78;16.98;;;;;;;;;;5077704;28;20049;-79
2022/12/10 10:51:06;;;;;;;48.15;16.88;;;;;;;;;;5072307;28;20087;-78
2022/12/10 10:53:43;;;;;;;53.95;16.70;;;;;;;;;;5089016;28;20049;-79
2022/12/10 10:56:19;;;;;;;54.45;17.38;;;;;;;;;;5082854;28;20037;-79
2022/12/10 10:58:53;;;;;;;52.22;17.25;;;;;;;;;;5087125;28;20521;-79
2022/12/10 11:01:25;;;;;;;44.10;15.23;;;;;;;;;;5082180;28;20065;-79
2022/12/10 11:03:58;;;;;;;93.78;16.52;;;;;;;;;;5085714;28;20041;-79
2022/12/10 11:06:27;;;;;;;42.35;15.48;;;;;;;;;;5086090;28;21484;-80
2022/12/10 11:08:58;;;;;;;42.35;15.68;;;;;;;;;;5073424;28;20055;-79
2022/12/10 11:11:31;;;;;;;51.72;15.40;;;;;;;;;;5073996;28;20129;-79
2022/12/10 11:13:58;;;;;;;;;;;;;;;;;;5079117;28;20045;-79
2022/12/10 11:16:26;;;;;;;46.95;16.13;;;;;;;;;;5086544;28;41919;-79
2022/12/10 11:18:58;;;;;;;45.75;17.15;;;;;;;;;;5084126;28;20029;-79
2022/12/10 11:21:25;;;;;;;49.05;15.18;;;;;;;;;;5093185;28;20049;-80
2022/12/10 11:23:55;;;;;;;51.53;17.45;;;;;;;;;;5092356;28;20053;-79
2022/12/10 11:26:35;;;;;;;80.68;16.73;;;;;;;;;;5088177;28;20095;-79
2022/12/10 11:29:19;;;;;;;63.40;17.25;;;;;;;;;;5085617;28;20092;-79
2022/12/10 11:32:05;;;;;;;68.18;16.17;;;;;;;;;;5086059;28;20056;-79
2022/12/10 11:34:46;;;;;;;62.97;14.73;;;;;;;;;;5085994;28;20072;-79
2022/12/10 11:37:25;;;;;;;54.13;16.67;;;;;;;;;;5086887;28;20049;-79
2022/12/10 11:40:03;;;;;;;50.20;16.75;;;;;;;;;;5093425;28;20064;-79
2022/12/10 11:42:31;;;;;;;53.60;15.27;;;;;;;;;;5086216;28;20103;-79
2022/12/10 11:45:00;;;;;;;45.20;15.27;;;;;;;;;;5082984;28;20045;-79
2022/12/10 11:47:46;;;;;;;41.50;14.18;;;;;;;;;;5086528;28;20056;-79
2022/12/10 11:50:23;;;;;;;51.10;15.13;;;;;;;;;;5073711;28;20081;-79
2022/12/10 11:53:02;;;;;;;47.47;15.35;;;;;;;;;;5084569;28;20071;-79
2022/12/10 11:55:39;;;;;;;43.05;14.80;;;;;;;;;;5084168;28;20045;-79
2022/12/10 11:58:15;;;;;;;44.70;15.93;;;;;;;;;;5076015;28;20099;-80
2022/12/10 12:00:53;;;;;;;50.58;15.18;;;;;;;;;;5095550;28;20037;-79
2022/12/10 12:03:54;;;;;;;49.78;17.02;;;;;;;;;;5074728;28;20041;-80
2022/12/10 12:06:23;;;;;;;52.20;15.50;;;;;;;;;;5072324;28;20060;-79
2022/12/10 12:08:58;;;;;;;46.55;14.98;;;;;;;;;;5072319;28;20067;-80
2022/12/10 12:11:32;;;;;;;41.15;14.50;;;;;;;;;;5089868;28;20151;-79
2022/12/10 12:13:59;;;;;;;;;;;;;;;;;;5090504;28;20056;-80
2022/12/10 12:16:41;;;;;;;74.38;17.33;;;;;;;;;;5086715;28;42712;-79
2022/12/10 12:19:12;;;;;;;48.65;15.32;;;;;;;;;;5075979;28;21527;-79
2022/12/10 12:21:42;;;;;;;46.97;16.73;;;;;;;;;;5085565;28;20042;-79
2022/12/10 12:24:16;;;;;;;51.28;18.05;;;;;;;;;;5078741;28;20049;-79
2022/12/10 12:26:48;;;;;;;73.85;15.13;;;;;;;;;;5094423;28;20052;-79
2022/12/10 12:29:21;;;;;;;66.15;17.50;;;;;;;;;;5087482;28;20203;-79
2022/12/10 12:32:14;;;;;;;55.60;17.42;;;;;;;;;;5069003;28;20064;-79
2022/12/10 12:34:44;;;;;;;54.10;15.80;;;;;;;;;;5040317;28;20045;-80
2022/12/10 12:37:17;;;;;;;49.05;17.42;;;;;;;;;;5085528;28;20049;-80
2022/12/10 12:39:49;;;;;;;56.92;15.55;;;;;;;;;;5095571;28;20110;-79
2022/12/10 12:42:25;;;;;;;52.58;16.60;;;;;;;;;;5089166;28;20071;-80
2022/12/10 12:45:04;;;;;;;49.50;16.55;;;;;;;;;;5094707;28;20043;-80
2022/12/10 12:47:40;;;;;;;46.08;14.32;;;;;;;;;;5083707;28;20049;-79
2022/12/10 12:50:23;;;;;;;51.22;14.93;;;;;;;;;;5086718;28;20048;-80
2022/12/10 12:52:58;;;;;;;48.15;15.52;;;;;;;;;;5090687;28;20056;-80
2022/12/10 12:55:37;;;;;;;53.90;15.98;;;;;;;;;;5089850;28;20045;-80
2022/12/10 12:58:07;;;;;;;53.97;16.55;;;;;;;;;;5070424;28;20056;-80
2022/12/10 13:00:35;;;;;;;44.70;16.27;;;;;;;;;;5089707;28;20091;-79
2022/12/10 13:03:21;;;;;;;46.22;15.57;;;;;;;;;;5091776;28;20968;-80
2022/12/10 13:05:50;;;;;;;65.20;16.60;;;;;;;;;;5087943;28;20060;-79
2022/12/10 13:08:26;;;;;;;50.95;15.68;;;;;;;;;;5083457;28;20053;-80
2022/12/10 13:11:15;;;;;;;48.33;16.25;;;;;;;;;;5083186;28;20053;-79
2022/12/10 13:14:01;;;;;;;61.92;16.75;;;;;;;;;;5094187;28;20048;-80
2022/12/10 13:16:47;;;;;;;45.33;14.73;;;;;;;;;;5083943;28;20072;-79
2022/12/10 13:19:21;;;;;;;41.22;15.60;;;;;;;;;;5092801;28;20853;-81
2022/12/10 13:22:05;;;;;;;39.40;14.48;;;;;;;;;;5095759;28;20041;-80
2022/12/10 13:24:35;;;;;;;46.28;15.35;;;;;;;;;;5094155;28;20098;-79
2022/12/10 13:27:03;;;;;;;45.17;16.08;;;;;;;;;;5086021;28;20087;-80
2022/12/10 13:29:43;;;;;;;45.92;14.73;;;;;;;;;;5096580;28;20056;-79
2022/12/10 13:32:19;;;;;;;48.03;16.33;;;;;;;;;;5089965;28;20071;-79
2022/12/10 13:34:49;;;;;;;52.55;17.10;;;;;;;;;;5071426;28;20115;-79
2022/12/10 13:37:28;;;;;;;43.30;15.32;;;;;;;;;;5072583;28;20071;-80
2022/12/10 13:40:25;;;;;;;47.53;14.70;;;;;;;;;;5091823;28;20055;-79
2022/12/10 13:46:35;;;;;;;43.58;15.02;;;;;;;;;;5084849;28;20033;-79
2022/12/10 13:49:06;;;;;;;58.15;16.38;;;;;;;;;;5076287;28;20050;-80
2022/12/10 13:51:40;;;;;;;48.40;16.60;;;;;;;;;;5069858;28;20128;-80
2022/12/10 13:54:30;;;;;;;50.20;15.88;;;;;;;;;;5086178;28;20064;-80
2022/12/10 13:57:30;;;;;;;49.55;16.52;;;;;;;;;;5057059;28;20052;-79
2022/12/10 13:59:58;;;;;;;65.35;14.70;;;;;;;;;;4970675;28;20051;-80
2022/12/10 14:02:52;;;;;;;41.10;14.63;;;;;;;;;;4971904;28;20112;-80
2022/12/10 14:05:19;;;;;;;49.58;15.77;;;;;;;;;;4984832;28;20060;-80
2022/12/10 14:07:48;;;;;;;42.22;16.45;;;;;;;;;;4987231;28;20032;-80
2022/12/10 14:10:17;;;;;;;45.15;16.25;;;;;;;;;;4982932;28;20051;-79
2022/12/10 14:12:46;;;;;;;63.58;16.13;;;;;;;;;;4983285;28;20058;-80
2022/12/10 14:15:24;;;;;;;46.55;14.25;;;;;;;;;;4972524;28;20170;-79
2022/12/10 14:17:58;;;;;;;81.15;17.92;;;;;;;;;;4987575;28;20048;-80
2022/12/10 14:20:27;;;;;;;60.25;15.40;;;;;;;;;;4986278;28;20081;-79
2022/12/10 14:25:44;;;;;;;56.78;15.43;;;;;;;;;;4977142;28;20116;-79
2022/12/10 14:28:13;;;;;;;50.80;15.73;;;;;;;;;;4987302;28;20035;-80
2022/12/10 14:30:44;;;;;;;87.70;17.45;;;;;;;;;;4984662;28;20111;-80
2022/12/10 14:33:15;;;;;;;50.85;16.50;;;;;;;;;;4985557;28;20047;-80
2022/12/10 14:35:43;;;;;;;56.05;15.63;;;;;;;;;;5030533;28;20073;-80
2022/12/10 14:38:17;;;;;;;72.22;17.80;;;;;;;;;;5067312;28;20057;-80
2022/12/10 14:40:45;;;;;;;50.75;16.65;;;;;;;;;;5064687;28;20081;-79
2022/12/10 14:43:14;;;;;;;60.45;16.30;;;;;;;;;;5065328;28;20112;-79
2022/12/10 14:45:46;;;;;;;61.05;16.50;;;;;;;;;;5068322;28;20033;-80
2022/12/10 14:48:16;;;;;;;55.20;16.65;;;;;;;;;;5061386;28;20038;-79
2022/12/10 14:50:45;;;;;;;54.55;17.50;;;;;;;;;;5062184;28;20050;-80
2022/12/10 14:53:14;;;;;;;61.75;17.17;;;;;;;;;;5066526;28;20032;-79
2022/12/10 14:55:42;;;;;;;77.40;18.08;;;;;;;;;;5067155;28;20052;-79